Time;durP1;ratioP1;P1;durP2;ratioP2;P2;SDS_P1;SDS_P2;PMS_P1;PMS_P2;Temp;Humidity;BMP_temperature;BMP_pressure;BME280_temperature;BME280_humidity;BME280_pressure;Samples;Min_cycle;Max_cycle;Signal;HPM_P1;HPM_P2
2022/12/08 00:01:17;;;;;;;24.88;10.73;;;;;;;;;;5020364;28;20055;-79
2022/12/08 00:03:43;;;;;;;22.67;10.02;;;;;;;;;;5016149;28;20024;-80
2022/12/08 00:09:23;;;;;;;27.05;11.02;;;;;;;;;;5017131;28;20652;-80
2022/12/08 00:11:51;;;;;;;27.77;10.57;;;;;;;;;;5022129;28;20034;-79
2022/12/08 00:14:16;;;;;;;36.00;11.73;;;;;;;;;;5018480;28;20691;-79
2022/12/08 00:16:41;;;;;;;31.80;11.80;;;;;;;;;;5019197;28;20037;-80
2022/12/08 00:19:06;;;;;;;27.27;11.07;;;;;;;;;;5020346;28;20079;-80
2022/12/08 00:21:32;;;;;;;35.35;11.70;;;;;;;;;;5022815;28;20725;-79
2022/12/08 00:23:57;;;;;;;28.00;11.65;;;;;;;;;;5021007;28;20037;-81
2022/12/08 00:26:22;;;;;;;27.90;9.52;;;;;;;;;;5023694;28;20128;-79
2022/12/08 00:28:48;;;;;;;22.75;10.35;;;;;;;;;;5021728;28;20129;-80
2022/12/08 00:31:13;;;;;;;25.60;10.50;;;;;;;;;;5022182;28;20030;-79
2022/12/08 00:33:38;;;;;;;33.67;12.60;;;;;;;;;;5021855;28;20124;-80
2022/12/08 00:36:12;;;;;;;29.65;11.32;;;;;;;;;;5020886;28;20037;-80
2022/12/08 00:38:39;;;;;;;27.52;10.50;;;;;;;;;;5022139;28;20037;-80
2022/12/08 00:41:13;;;;;;;23.98;10.80;;;;;;;;;;5021244;28;20111;-80
2022/12/08 00:43:38;;;;;;;23.88;10.20;;;;;;;;;;5019381;28;20814;-80
2022/12/08 00:46:04;;;;;;;26.38;11.60;;;;;;;;;;5018542;28;20021;-80
2022/12/08 00:48:29;;;;;;;27.50;10.60;;;;;;;;;;5014752;28;20084;-80
2022/12/08 00:50:54;;;;;;;20.70;9.13;;;;;;;;;;5007501;28;20422;-80
2022/12/08 00:53:20;;;;;;;31.25;11.27;;;;;;;;;;5023694;28;20423;-80
2022/12/08 00:55:45;;;;;;;21.98;10.35;;;;;;;;;;5023271;28;20167;-80
2022/12/08 00:58:10;;;;;;;30.40;10.82;;;;;;;;;;5021137;28;20037;-80
2022/12/08 01:00:36;;;;;;;23.42;10.27;;;;;;;;;;5033034;28;20104;-80
2022/12/08 01:03:01;;;;;;;27.23;10.02;;;;;;;;;;5022389;28;20053;-80
2022/12/08 01:05:26;;;;;;;24.75;8.98;;;;;;;;;;5022063;28;20041;-80
2022/12/08 01:07:51;;;;;;;29.27;10.68;;;;;;;;;;5021778;28;20037;-80
2022/12/08 01:10:17;;;;;;;25.08;9.30;;;;;;;;;;5022784;28;20076;-80
2022/12/08 01:12:42;;;;;;;26.80;10.32;;;;;;;;;;5023863;28;20391;-80
2022/12/08 01:15:08;;;;;;;28.15;10.10;;;;;;;;;;5021299;28;20529;-81
2022/12/08 01:17:33;;;;;;;20.30;9.60;;;;;;;;;;5023298;28;20044;-80
2022/12/08 01:20:00;;;;;;;27.65;9.55;;;;;;;;;;5022499;28;20049;-79
2022/12/08 01:22:26;;;;;;;22.52;9.80;;;;;;;;;;5021979;28;20038;-80
2022/12/08 01:24:51;;;;;;;21.35;9.85;;;;;;;;;;5025573;28;20030;-80
2022/12/08 01:27:16;;;;;;;26.60;10.77;;;;;;;;;;5024376;28;20037;-80
2022/12/08 01:29:42;;;;;;;21.13;8.52;;;;;;;;;;5025969;28;20044;-79
2022/12/08 01:32:08;;;;;;;27.35;12.00;;;;;;;;;;5021332;28;20041;-80
2022/12/08 01:34:33;;;;;;;21.23;9.25;;;;;;;;;;5021016;28;20048;-80
2022/12/08 01:36:59;;;;;;;28.45;10.65;;;;;;;;;;5024703;28;20025;-79
2022/12/08 01:39:24;;;;;;;24.55;10.35;;;;;;;;;;5024576;28;20111;-80
2022/12/08 01:41:50;;;;;;;33.03;12.75;;;;;;;;;;5025239;28;20507;-80
2022/12/08 01:44:15;;;;;;;27.63;10.25;;;;;;;;;;5022489;28;20042;-79
2022/12/08 01:46:43;;;;;;;25.70;11.02;;;;;;;;;;5029838;28;20041;-80
2022/12/08 01:49:11;;;;;;;30.75;11.60;;;;;;;;;;5025118;28;20053;-79
2022/12/08 01:51:45;;;;;;;28.73;11.50;;;;;;;;;;5006292;28;20057;-80
2022/12/08 01:54:11;;;;;;;23.75;10.38;;;;;;;;;;5019585;28;20045;-80
2022/12/08 01:56:53;;;;;;;27.35;11.02;;;;;;;;;;5024224;28;20061;-79
2022/12/08 01:59:19;;;;;;;31.85;10.85;;;;;;;;;;5024398;28;20041;-80
2022/12/08 02:01:44;;;;;;;22.85;10.15;;;;;;;;;;5026131;28;20037;-80
2022/12/08 02:04:09;;;;;;;21.33;9.52;;;;;;;;;;5025518;28;20029;-80
2022/12/08 02:06:39;;;;;;;27.13;10.05;;;;;;;;;;5024009;28;20132;-80
2022/12/08 02:09:05;;;;;;;25.52;10.75;;;;;;;;;;5025891;28;20134;-80
2022/12/08 02:11:30;;;;;;;25.98;9.10;;;;;;;;;;5022290;28;20457;-80
2022/12/08 02:13:57;;;;;;;28.92;10.15;;;;;;;;;;5025741;28;20033;-80
2022/12/08 02:16:37;;;;;;;27.25;9.07;;;;;;;;;;5025483;28;20052;-80
2022/12/08 02:19:30;;;;;;;24.30;10.07;;;;;;;;;;5012378;28;20021;-80
2022/12/08 02:22:13;;;;;;;19.53;7.73;;;;;;;;;;5023480;28;20449;-80
2022/12/08 02:25:02;;;;;;;27.80;10.80;;;;;;;;;;5041143;28;20107;-79
2022/12/08 02:27:28;;;;;;;25.00;9.45;;;;;;;;;;5014094;28;20049;-80
2022/12/08 02:30:07;;;;;;;27.02;9.50;;;;;;;;;;5024303;28;20388;-80
2022/12/08 02:32:52;;;;;;;23.98;9.68;;;;;;;;;;5019292;28;20038;-80
2022/12/08 02:35:28;;;;;;;25.65;9.13;;;;;;;;;;5021973;28;20107;-79
2022/12/08 02:38:02;;;;;;;22.10;9.93;;;;;;;;;;5024400;28;20029;-80
2022/12/08 02:40:35;;;;;;;30.48;10.32;;;;;;;;;;5021819;28;20419;-80
2022/12/08 02:43:28;;;;;;;27.52;10.25;;;;;;;;;;5021447;28;20029;-79
2022/12/08 02:46:10;;;;;;;23.27;9.93;;;;;;;;;;5023218;28;20068;-79
2022/12/08 02:48:35;;;;;;;19.35;8.93;;;;;;;;;;5005689;28;20054;-80
2022/12/08 02:51:00;;;;;;;19.63;8.13;;;;;;;;;;5017477;28;20040;-79
2022/12/08 02:53:29;;;;;;;20.15;8.07;;;;;;;;;;5023700;28;20036;-80
2022/12/08 02:56:13;;;;;;;20.10;8.57;;;;;;;;;;5024720;28;20030;-80
2022/12/08 02:58:53;;;;;;;19.13;8.45;;;;;;;;;;5012261;28;20044;-80
2022/12/08 03:01:50;;;;;;;27.67;10.02;;;;;;;;;;5024201;28;20118;-80
2022/12/08 03:04:50;;;;;;;19.30;8.05;;;;;;;;;;5025371;28;20076;-80
2022/12/08 03:07:30;;;;;;;28.05;9.65;;;;;;;;;;5025411;28;20034;-80
2022/12/08 03:10:05;;;;;;;18.30;7.93;;;;;;;;;;5012853;28;20047;-80
2022/12/08 03:12:41;;;;;;;29.98;9.70;;;;;;;;;;5012649;28;20058;-79
2022/12/08 03:15:11;;;;;;;18.67;8.65;;;;;;;;;;5025154;28;20582;-80
2022/12/08 03:17:42;;;;;;;19.00;7.95;;;;;;;;;;5025809;28;20029;-80
2022/12/08 03:20:11;;;;;;;22.63;8.52;;;;;;;;;;5023832;28;20097;-80
2022/12/08 03:22:40;;;;;;;20.75;7.35;;;;;;;;;;5024684;28;20052;-79
2022/12/08 03:25:08;;;;;;;18.65;8.23;;;;;;;;;;5025548;28;20380;-79
2022/12/08 03:27:33;;;;;;;22.77;8.38;;;;;;;;;;5022661;28;20041;-80
2022/12/08 03:29:59;;;;;;;27.05;9.68;;;;;;;;;;5023638;28;20037;-81
2022/12/08 03:32:38;;;;;;;18.98;8.82;;;;;;;;;;5009465;28;20052;-80
2022/12/08 03:35:12;;;;;;;26.80;9.73;;;;;;;;;;5022305;28;20037;-80
2022/12/08 03:37:38;;;;;;;25.48;9.00;;;;;;;;;;5025660;28;20668;-80
2022/12/08 03:40:06;;;;;;;20.88;8.50;;;;;;;;;;5025613;28;20029;-79
2022/12/08 03:42:32;;;;;;;25.65;8.75;;;;;;;;;;5025520;28;20036;-80
2022/12/08 03:44:57;;;;;;;19.27;7.90;;;;;;;;;;5019460;28;20038;-80
2022/12/08 03:47:22;;;;;;;18.42;7.93;;;;;;;;;;5015335;28;20032;-80
2022/12/08 03:49:48;;;;;;;18.10;8.15;;;;;;;;;;5019775;28;20076;-80
2022/12/08 03:52:14;;;;;;;19.58;8.13;;;;;;;;;;5019306;28;20063;-79
2022/12/08 03:54:39;;;;;;;16.58;7.90;;;;;;;;;;5022581;28;20427;-80
2022/12/08 03:57:04;;;;;;;22.55;8.68;;;;;;;;;;5014029;28;20120;-80
2022/12/08 03:59:30;;;;;;;20.17;8.23;;;;;;;;;;5024584;28;20104;-80
2022/12/08 04:01:55;;;;;;;21.45;7.78;;;;;;;;;;5023610;28;20041;-79
2022/12/08 04:04:20;;;;;;;19.88;7.63;;;;;;;;;;5013408;28;20060;-80
2022/12/08 04:06:46;;;;;;;26.20;9.07;;;;;;;;;;5022692;28;20032;-80
2022/12/08 04:09:11;;;;;;;21.42;8.55;;;;;;;;;;5025757;28;20057;-80
2022/12/08 04:11:36;;;;;;;19.45;8.27;;;;;;;;;;5024584;28;20091;-80
2022/12/08 04:14:02;;;;;;;22.27;9.18;;;;;;;;;;5026027;28;20060;-80
2022/12/08 04:16:27;;;;;;;23.08;9.82;;;;;;;;;;5025250;28;20025;-80
2022/12/08 04:18:53;;;;;;;23.73;9.00;;;;;;;;;;5025424;28;20055;-79
2022/12/08 04:21:18;;;;;;;21.52;9.23;;;;;;;;;;5023355;28;20128;-80
2022/12/08 04:23:44;;;;;;;21.73;8.38;;;;;;;;;;5022496;28;20033;-80
2022/12/08 04:26:10;;;;;;;25.45;8.55;;;;;;;;;;5023819;28;20049;-80
2022/12/08 04:28:35;;;;;;;16.73;6.57;;;;;;;;;;5022467;28;20127;-80
2022/12/08 04:31:01;;;;;;;26.50;9.02;;;;;;;;;;5033689;28;20176;-80
2022/12/08 04:33:27;;;;;;;25.27;9.50;;;;;;;;;;5023515;28;20069;-79
2022/12/08 04:35:52;;;;;;;25.08;8.15;;;;;;;;;;5024390;28;20044;-80
2022/12/08 04:38:17;;;;;;;27.05;10.02;;;;;;;;;;5024479;28;20044;-80
2022/12/08 04:40:43;;;;;;;20.85;9.20;;;;;;;;;;5026222;28;20125;-80
2022/12/08 04:43:08;;;;;;;41.17;9.77;;;;;;;;;;5019574;28;20025;-81
2022/12/08 04:45:34;;;;;;;22.45;8.60;;;;;;;;;;5024779;28;20033;-80
2022/12/08 04:48:00;;;;;;;23.75;10.35;;;;;;;;;;5025785;28;20039;-80
2022/12/08 04:50:27;;;;;;;15.50;7.90;;;;;;;;;;5040510;28;20048;-80
2022/12/08 04:52:52;;;;;;;28.83;8.52;;;;;;;;;;5022755;28;20030;-80
2022/12/08 04:55:18;;;;;;;22.95;8.07;;;;;;;;;;5026167;28;20028;-80
2022/12/08 04:57:43;;;;;;;15.75;7.15;;;;;;;;;;5026087;28;20045;-79
2022/12/08 05:00:09;;;;;;;18.65;8.68;;;;;;;;;;5022352;28;20463;-79
2022/12/08 05:02:35;;;;;;;20.02;8.45;;;;;;;;;;5027724;28;20037;-79
2022/12/08 05:05:02;;;;;;;22.80;9.27;;;;;;;;;;5015981;28;20030;-80
2022/12/08 05:07:27;;;;;;;33.28;10.35;;;;;;;;;;5029822;28;20403;-80
2022/12/08 05:09:52;;;;;;;26.50;9.38;;;;;;;;;;5028094;28;20123;-80
2022/12/08 05:12:18;;;;;;;30.02;9.07;;;;;;;;;;5029573;28;20045;-80
2022/12/08 05:14:43;;;;;;;18.20;7.72;;;;;;;;;;5028277;28;20071;-80
2022/12/08 05:17:08;;;;;;;26.88;8.88;;;;;;;;;;5027642;28;20057;-80
2022/12/08 05:19:34;;;;;;;19.02;7.93;;;;;;;;;;5027557;28;20068;-80
2022/12/08 05:21:59;;;;;;;20.92;8.65;;;;;;;;;;5022839;28;20017;-80
2022/12/08 05:24:25;;;;;;;17.10;8.25;;;;;;;;;;5027542;28;20044;-80
2022/12/08 05:26:50;;;;;;;23.95;9.05;;;;;;;;;;5028346;28;20033;-80
2022/12/08 05:29:15;;;;;;;21.20;7.30;;;;;;;;;;5027366;28;20088;-79
2022/12/08 05:31:41;;;;;;;21.58;8.50;;;;;;;;;;5029048;28;20041;-80
2022/12/08 05:34:09;;;;;;;20.55;8.10;;;;;;;;;;5048989;28;20070;-78
2022/12/08 05:36:34;;;;;;;23.88;8.40;;;;;;;;;;5027136;28;20053;-80
2022/12/08 05:38:59;;;;;;;13.27;6.72;;;;;;;;;;5029547;28;20057;-80
2022/12/08 05:41:25;;;;;;;19.25;8.93;;;;;;;;;;5028146;28;20080;-80
2022/12/08 05:43:50;;;;;;;21.42;7.70;;;;;;;;;;5028068;28;20053;-80
2022/12/08 05:46:16;;;;;;;17.48;7.72;;;;;;;;;;5027163;28;20060;-79
2022/12/08 05:48:41;;;;;;;22.25;8.32;;;;;;;;;;5028496;28;20069;-80
2022/12/08 05:51:15;;;;;;;17.50;8.80;;;;;;;;;;5015436;28;20389;-80
2022/12/08 05:53:41;;;;;;;20.25;8.10;;;;;;;;;;5027896;28;20055;-80
2022/12/08 05:56:06;;;;;;;18.15;7.57;;;;;;;;;;5028363;28;20029;-81
2022/12/08 05:58:31;;;;;;;20.13;7.65;;;;;;;;;;5028511;28;20036;-80
2022/12/08 06:00:57;;;;;;;18.00;7.38;;;;;;;;;;5027103;28;20029;-80
2022/12/08 06:03:22;;;;;;;23.63;9.23;;;;;;;;;;5027180;28;20033;-79
2022/12/08 06:05:47;;;;;;;23.83;8.15;;;;;;;;;;5027987;28;20064;-80
2022/12/08 06:08:13;;;;;;;25.23;8.13;;;;;;;;;;5027843;28;20045;-80
2022/12/08 06:10:40;;;;;;;25.55;9.55;;;;;;;;;;5027870;28;20395;-80
2022/12/08 06:13:05;;;;;;;14.75;7.05;;;;;;;;;;5041320;28;20094;-79
2022/12/08 06:15:33;;;;;;;18.13;7.53;;;;;;;;;;5023229;28;20108;-80
2022/12/08 06:17:58;;;;;;;19.90;8.18;;;;;;;;;;5008353;28;20088;-80
2022/12/08 06:20:24;;;;;;;23.73;8.15;;;;;;;;;;5008940;28;20049;-80
2022/12/08 06:22:49;;;;;;;21.55;7.80;;;;;;;;;;5025118;28;20051;-79
2022/12/08 06:25:14;;;;;;;13.93;6.63;;;;;;;;;;5042495;28;20550;-80
2022/12/08 06:27:39;;;;;;;22.63;8.40;;;;;;;;;;5025751;28;20242;-80
2022/12/08 06:30:05;;;;;;;25.77;8.90;;;;;;;;;;5028310;28;20041;-80
2022/12/08 06:32:31;;;;;;;19.35;7.70;;;;;;;;;;5027940;28;20057;-80
2022/12/08 06:34:56;;;;;;;18.48;8.15;;;;;;;;;;5025288;28;20398;-80
2022/12/08 06:37:21;;;;;;;22.73;9.27;;;;;;;;;;5026212;28;20112;-80
2022/12/08 06:39:47;;;;;;;24.33;8.45;;;;;;;;;;5043379;28;20025;-80
2022/12/08 06:44:56;;;;;;;20.45;8.07;;;;;;;;;;5028030;28;20730;-80
2022/12/08 06:47:22;;;;;;;16.38;7.32;;;;;;;;;;5025748;28;20033;-80
2022/12/08 06:49:47;;;;;;;19.92;7.80;;;;;;;;;;5028011;28;20045;-80
2022/12/08 06:52:13;;;;;;;19.70;8.15;;;;;;;;;;5024836;28;20431;-80
2022/12/08 06:54:39;;;;;;;21.08;8.32;;;;;;;;;;5028778;28;20021;-80
2022/12/08 06:57:04;;;;;;;16.98;8.23;;;;;;;;;;5026894;28;20049;-80
2022/12/08 06:59:30;;;;;;;17.88;7.15;;;;;;;;;;5024061;28;20041;-80
2022/12/08 07:01:56;;;;;;;23.35;8.98;;;;;;;;;;5022882;28;20057;-80
2022/12/08 07:04:21;;;;;;;17.23;7.45;;;;;;;;;;5023652;28;20056;-80
2022/12/08 07:06:46;;;;;;;18.00;7.60;;;;;;;;;;5027084;28;20487;-79
2022/12/08 07:09:12;;;;;;;21.27;8.05;;;;;;;;;;5023242;28;20044;-79
2022/12/08 07:11:38;;;;;;;22.40;7.85;;;;;;;;;;5023720;28;20388;-79
2022/12/08 07:14:03;;;;;;;16.77;7.45;;;;;;;;;;5020996;28;20034;-79
2022/12/08 07:16:29;;;;;;;23.20;9.30;;;;;;;;;;5020679;28;20061;-79
2022/12/08 07:18:54;;;;;;;19.60;7.93;;;;;;;;;;5023679;28;20024;-79
2022/12/08 07:21:19;;;;;;;20.02;7.03;;;;;;;;;;5022426;28;20022;-79
2022/12/08 07:23:46;;;;;;;19.13;7.60;;;;;;;;;;5014940;28;20033;-79
2022/12/08 07:26:12;;;;;;;21.17;7.88;;;;;;;;;;5030889;28;20040;-79
2022/12/08 07:28:39;;;;;;;15.35;7.13;;;;;;;;;;5017269;28;20029;-78
2022/12/08 07:31:05;;;;;;;20.63;7.55;;;;;;;;;;5019143;28;20037;-78
2022/12/08 07:33:31;;;;;;;16.30;7.35;;;;;;;;;;5022021;28;20509;-79
2022/12/08 07:35:59;;;;;;;22.23;8.13;;;;;;;;;;5026140;28;20029;-79
2022/12/08 07:38:25;;;;;;;17.65;6.40;;;;;;;;;;5015763;28;20172;-79
2022/12/08 07:40:51;;;;;;;19.70;9.35;;;;;;;;;;5018549;28;20188;-79
2022/12/08 07:43:17;;;;;;;15.50;8.38;;;;;;;;;;5018535;28;20021;-80
2022/12/08 07:45:42;;;;;;;14.75;6.40;;;;;;;;;;5019209;28;20040;-79
2022/12/08 07:48:07;;;;;;;20.83;8.60;;;;;;;;;;5020471;28;20029;-80
2022/12/08 07:50:33;;;;;;;22.25;9.30;;;;;;;;;;5035179;28;20037;-79
2022/12/08 07:52:58;;;;;;;20.58;7.78;;;;;;;;;;5020978;28;20030;-79
2022/12/08 07:55:24;;;;;;;18.27;7.60;;;;;;;;;;5019185;28;20526;-79
2022/12/08 07:57:50;;;;;;;17.40;7.15;;;;;;;;;;5020060;28;20025;-79
2022/12/08 08:00:16;;;;;;;17.67;7.05;;;;;;;;;;5018080;28;20044;-78
2022/12/08 08:02:41;;;;;;;23.38;9.18;;;;;;;;;;5004373;28;20045;-78
2022/12/08 08:05:07;;;;;;;17.33;7.65;;;;;;;;;;5015796;28;20038;-77
2022/12/08 08:07:33;;;;;;;25.70;9.15;;;;;;;;;;5012591;28;20513;-78
2022/12/08 08:09:58;;;;;;;20.90;8.15;;;;;;;;;;5032459;28;20021;-77
2022/12/08 08:12:24;;;;;;;20.60;8.23;;;;;;;;;;5032448;28;20041;-77
2022/12/08 08:14:49;;;;;;;23.05;7.53;;;;;;;;;;5019542;28;20045;-77
2022/12/08 08:17:14;;;;;;;20.50;8.48;;;;;;;;;;5016792;28;20538;-78
2022/12/08 08:19:40;;;;;;;22.25;8.32;;;;;;;;;;5016505;28;20120;-78
2022/12/08 08:22:05;;;;;;;11.52;6.07;;;;;;;;;;5018857;28;20021;-77
2022/12/08 08:24:30;;;;;;;17.70;7.80;;;;;;;;;;5018020;28;20999;-77
2022/12/08 08:26:56;;;;;;;25.42;8.65;;;;;;;;;;5015358;28;20819;-77
2022/12/08 08:29:21;;;;;;;20.38;7.82;;;;;;;;;;5017347;28;20039;-77
2022/12/08 08:31:46;;;;;;;18.75;7.90;;;;;;;;;;5017764;28;20041;-77
2022/12/08 08:34:12;;;;;;;22.48;6.88;;;;;;;;;;5023378;28;20033;-78
2022/12/08 08:36:38;;;;;;;21.52;8.05;;;;;;;;;;5023081;28;20033;-78
2022/12/08 08:39:04;;;;;;;19.75;7.30;;;;;;;;;;5021495;28;20030;-77
2022/12/08 08:41:29;;;;;;;19.40;7.30;;;;;;;;;;5032072;28;20115;-80
2022/12/08 08:43:54;;;;;;;16.80;8.02;;;;;;;;;;5016499;28;20475;-80
2022/12/08 08:46:20;;;;;;;16.85;7.18;;;;;;;;;;5021627;28;20071;-79
2022/12/08 08:48:45;;;;;;;26.65;9.25;;;;;;;;;;5023741;28;20530;-79
2022/12/08 08:51:13;;;;;;;20.45;6.68;;;;;;;;;;5037741;28;20450;-79
2022/12/08 08:53:39;;;;;;;17.45;8.07;;;;;;;;;;5023443;28;20038;-79
2022/12/08 08:56:13;;;;;;;17.60;7.53;;;;;;;;;;5013562;28;20045;-79
2022/12/08 08:58:38;;;;;;;17.33;7.65;;;;;;;;;;5018125;28;20029;-81
2022/12/08 09:01:04;;;;;;;22.42;8.95;;;;;;;;;;5015409;28;20028;-79
2022/12/08 09:03:29;;;;;;;19.27;8.60;;;;;;;;;;5026877;28;20033;-79
2022/12/08 09:05:56;;;;;;;15.73;6.07;;;;;;;;;;5025835;28;20039;-79
2022/12/08 09:08:22;;;;;;;25.05;7.68;;;;;;;;;;5038310;28;20034;-79
2022/12/08 09:10:47;;;;;;;18.48;7.07;;;;;;;;;;5027202;28;20037;-80
2022/12/08 09:13:13;;;;;;;22.67;7.68;;;;;;;;;;5022858;28;20033;-79
2022/12/08 09:15:38;;;;;;;26.23;8.70;;;;;;;;;;5023834;28;20025;-79
2022/12/08 09:18:07;;;;;;;18.48;7.35;;;;;;;;;;5023449;28;20056;-80
2022/12/08 09:20:33;;;;;;;19.48;7.93;;;;;;;;;;5022926;28;20372;-78
2022/12/08 09:22:59;;;;;;;21.90;8.50;;;;;;;;;;5021805;28;20052;-78
2022/12/08 09:25:24;;;;;;;20.73;8.13;;;;;;;;;;5027185;28;20025;-79
2022/12/08 09:27:50;;;;;;;23.13;7.38;;;;;;;;;;5027764;28;20033;-79
2022/12/08 09:30:15;;;;;;;22.17;9.40;;;;;;;;;;5025673;28;20032;-78
2022/12/08 09:32:40;;;;;;;16.75;7.50;;;;;;;;;;5043369;28;20041;-79
2022/12/08 09:35:06;;;;;;;22.95;8.60;;;;;;;;;;5024703;28;20029;-78
2022/12/08 09:37:32;;;;;;;16.73;8.23;;;;;;;;;;5024959;28;20030;-78
2022/12/08 09:39:57;;;;;;;14.52;5.90;;;;;;;;;;5027465;28;20025;-78
2022/12/08 09:42:46;;;;;;;16.92;6.50;;;;;;;;;;5039918;28;20430;-79
2022/12/08 09:45:14;;;;;;;16.05;8.25;;;;;;;;;;5024482;28;20046;-79
2022/12/08 09:48:04;;;;;;;19.58;7.90;;;;;;;;;;5029201;28;20042;-79
2022/12/08 09:50:37;;;;;;;24.20;8.32;;;;;;;;;;5037051;28;20442;-78
2022/12/08 09:53:23;;;;;;;15.13;5.85;;;;;;;;;;5031479;28;20033;-80
2022/12/08 09:55:59;;;;;;;15.95;7.60;;;;;;;;;;5026680;28;20138;-79
2022/12/08 09:58:43;;;;;;;23.70;8.30;;;;;;;;;;5023644;28;20102;-78
2022/12/08 10:01:12;;;;;;;20.73;8.98;;;;;;;;;;5025265;28;20128;-79
2022/12/08 10:03:37;;;;;;;19.88;8.15;;;;;;;;;;5025884;28;20032;-77
2022/12/08 10:06:13;;;;;;;15.23;7.47;;;;;;;;;;5026895;28;20462;-80
2022/12/08 10:09:09;;;;;;;16.85;7.13;;;;;;;;;;5027250;28;20041;-78
2022/12/08 10:12:05;;;;;;;15.35;7.00;;;;;;;;;;5022243;28;20183;-78
2022/12/08 10:14:34;;;;;;;21.27;7.78;;;;;;;;;;5018285;28;20049;-77
2022/12/08 10:17:24;;;;;;;14.52;6.95;;;;;;;;;;5036413;28;20033;-79
2022/12/08 10:19:56;;;;;;;26.35;9.85;;;;;;;;;;5025721;28;20041;-78
2022/12/08 10:22:24;;;;;;;23.55;8.90;;;;;;;;;;5023983;28;20076;-79
2022/12/08 10:25:14;;;;;;;17.42;8.13;;;;;;;;;;5022619;28;20052;-80
2022/12/08 10:27:39;;;;;;;20.15;8.80;;;;;;;;;;5021332;28;20803;-80
2022/12/08 10:30:13;;;;;;;24.45;8.55;;;;;;;;;;5025959;28;20051;-78
2022/12/08 10:32:39;;;;;;;;;;;;;;;;;;5026878;28;20040;-77
2022/12/08 10:35:13;;;;;;;17.33;7.00;;;;;;;;;;5025059;28;19936;-78
2022/12/08 10:37:39;;;;;;;21.27;8.95;;;;;;;;;;5024666;28;20526;-79
2022/12/08 10:40:07;;;;;;;21.90;9.07;;;;;;;;;;5027220;28;20040;-81
2022/12/08 10:42:36;;;;;;;14.00;7.97;;;;;;;;;;5021960;28;20085;-81
2022/12/08 10:45:07;;;;;;;17.48;7.97;;;;;;;;;;5024470;28;20037;-80
2022/12/08 10:47:38;;;;;;;22.25;9.18;;;;;;;;;;5024575;28;20053;-80
2022/12/08 10:50:22;;;;;;;25.20;9.35;;;;;;;;;;5041485;28;20233;-80
2022/12/08 10:53:13;;;;;;;16.90;9.13;;;;;;;;;;5024075;28;20125;-80
2022/12/08 10:55:48;;;;;;;19.00;7.97;;;;;;;;;;5026100;28;20510;-80
2022/12/08 10:58:45;;;;;;;13.57;6.57;;;;;;;;;;5039794;28;20710;-78
2022/12/08 11:01:24;;;;;;;13.85;5.88;;;;;;;;;;5021783;28;20026;-79
2022/12/08 11:03:58;;;;;;;14.85;6.22;;;;;;;;;;5020386;28;20065;-77
2022/12/08 11:06:37;;;;;;;19.40;7.32;;;;;;;;;;5023853;28;20043;-78
2022/12/08 11:09:47;;;;;;;12.70;6.50;;;;;;;;;;5025112;28;20073;-81
2022/12/08 11:12:14;;;;;;;19.70;7.38;;;;;;;;;;5023283;28;20473;-80
2022/12/08 11:14:42;;;;;;;20.90;8.55;;;;;;;;;;5041375;28;20053;-78
2022/12/08 11:17:26;;;;;;;12.40;5.85;;;;;;;;;;5025183;28;20045;-77
2022/12/08 11:19:57;;;;;;;;;;;;;;;;;;5021708;28;20057;-77
2022/12/08 11:22:24;;;;;;;16.95;6.80;;;;;;;;;;5024158;28;19951;-77
2022/12/08 11:25:10;;;;;;;15.90;7.18;;;;;;;;;;5018648;28;20120;-76
2022/12/08 11:27:39;;;;;;;15.20;8.00;;;;;;;;;;5023506;28;20042;-77
2022/12/08 11:30:26;;;;;;;20.80;8.02;;;;;;;;;;5016217;28;20045;-77
2022/12/08 11:33:05;;;;;;;15.45;7.10;;;;;;;;;;5021482;28;20037;-76
2022/12/08 11:35:37;;;;;;;16.27;7.10;;;;;;;;;;5022528;28;20045;-78
2022/12/08 11:38:34;;;;;;;17.27;7.00;;;;;;;;;;5025775;28;20029;-75
2022/12/08 11:41:05;;;;;;;19.02;7.05;;;;;;;;;;5016775;28;20037;-74
2022/12/08 11:43:58;;;;;;;17.75;6.45;;;;;;;;;;5024981;28;20033;-75
2022/12/08 11:46:39;;;;;;;16.90;4.93;;;;;;;;;;5027204;28;20029;-76
2022/12/08 11:49:09;;;;;;;15.05;5.28;;;;;;;;;;5034012;28;20056;-77
2022/12/08 11:51:57;;;;;;;15.50;6.68;;;;;;;;;;5025934;28;20125;-76
2022/12/08 11:54:28;;;;;;;18.17;7.32;;;;;;;;;;5026196;28;20045;-76
2022/12/08 11:56:56;;;;;;;20.05;6.75;;;;;;;;;;5024942;28;20041;-76
2022/12/08 11:59:29;;;;;;;14.15;4.82;;;;;;;;;;5025421;28;20629;-76
2022/12/08 12:01:58;;;;;;;12.35;5.80;;;;;;;;;;5024732;28;20110;-76
2022/12/08 12:04:41;;;;;;;20.90;7.68;;;;;;;;;;5025593;28;20469;-76
2022/12/08 12:07:34;;;;;;;10.93;5.25;;;;;;;;;;5025952;28;20025;-76
2022/12/08 12:10:26;;;;;;;18.05;6.97;;;;;;;;;;5025861;28;20116;-76
2022/12/08 12:13:01;;;;;;;15.23;5.15;;;;;;;;;;5025523;28;20077;-76
2022/12/08 12:16:03;;;;;;;18.60;6.18;;;;;;;;;;5025222;28;20124;-76
2022/12/08 12:18:44;;;;;;;16.75;6.38;;;;;;;;;;5025549;28;20034;-76
2022/12/08 12:21:09;;;;;;;12.65;4.68;;;;;;;;;;5023771;28;20564;-76
2022/12/08 12:23:40;;;;;;;13.95;4.75;;;;;;;;;;5025504;28;20072;-77
2022/12/08 12:26:09;;;;;;;17.08;6.20;;;;;;;;;;5024137;28;20083;-76
2022/12/08 12:28:48;;;;;;;16.17;6.10;;;;;;;;;;5026583;28;20035;-76
2022/12/08 12:31:20;;;;;;;11.48;5.30;;;;;;;;;;5025767;28;20116;-76
2022/12/08 12:33:47;;;;;;;10.85;5.28;;;;;;;;;;5026096;28;20029;-76
2022/12/08 12:36:13;;;;;;;13.57;5.15;;;;;;;;;;5014990;28;20041;-76
2022/12/08 12:39:00;;;;;;;13.02;6.03;;;;;;;;;;5024515;28;20036;-76
2022/12/08 12:41:53;;;;;;;20.52;5.25;;;;;;;;;;5022751;28;20033;-76
2022/12/08 12:44:27;;;;;;;15.38;5.97;;;;;;;;;;5020619;28;20065;-76
2022/12/08 12:46:59;;;;;;;18.38;6.40;;;;;;;;;;5025931;28;20034;-76
2022/12/08 12:49:37;;;;;;;21.27;6.72;;;;;;;;;;5018123;28;20141;-75
2022/12/08 12:52:23;;;;;;;15.65;6.55;;;;;;;;;;5008881;28;20475;-77
2022/12/08 12:54:48;;;;;;;16.02;5.75;;;;;;;;;;5033323;28;20057;-76
2022/12/08 12:57:17;;;;;;;15.10;6.25;;;;;;;;;;5024271;28;20041;-76
2022/12/08 12:59:51;;;;;;;9.60;4.88;;;;;;;;;;5025216;28;20048;-76
2022/12/08 13:02:19;;;;;;;18.02;6.25;;;;;;;;;;5023750;28;20079;-76
2022/12/08 13:04:54;;;;;;;12.70;5.13;;;;;;;;;;5025660;28;20041;-76
2022/12/08 13:07:25;;;;;;;12.15;4.78;;;;;;;;;;5024524;28;20087;-77
2022/12/08 13:10:14;;;;;;;14.30;5.75;;;;;;;;;;5041791;28;20114;-76
2022/12/08 13:12:40;;;;;;;13.77;4.95;;;;;;;;;;5014986;28;20045;-76
2022/12/08 13:15:06;;;;;;;18.45;6.35;;;;;;;;;;5025835;28;20152;-76
2022/12/08 13:17:34;;;;;;;15.20;5.38;;;;;;;;;;5025360;28;20687;-76
2022/12/08 13:20:03;;;;;;;16.88;4.65;;;;;;;;;;5025550;28;20072;-76
2022/12/08 13:23:00;;;;;;;12.88;5.38;;;;;;;;;;5025238;28;20037;-77
2022/12/08 13:25:37;;;;;;;14.38;4.97;;;;;;;;;;5028851;28;21535;-77
2022/12/08 13:28:32;;;;;;;15.23;6.18;;;;;;;;;;5027578;28;20471;-76
2022/12/08 13:31:02;;;;;;;14.90;6.47;;;;;;;;;;5016988;28;20747;-77
2022/12/08 13:33:39;;;;;;;15.32;5.07;;;;;;;;;;5026913;28;20087;-77
2022/12/08 13:36:13;;;;;;;9.63;4.70;;;;;;;;;;5027771;28;20050;-77
2022/12/08 13:38:42;;;;;;;13.68;5.13;;;;;;;;;;5026685;28;20034;-76
2022/12/08 13:41:16;;;;;;;11.25;5.40;;;;;;;;;;5029605;28;20121;-77
2022/12/08 13:43:47;;;;;;;9.98;5.03;;;;;;;;;;5028905;28;20041;-78
2022/12/08 13:46:14;;;;;;;10.73;4.32;;;;;;;;;;5027329;28;20033;-77
2022/12/08 13:48:47;;;;;;;11.45;5.20;;;;;;;;;;5029357;28;20166;-77
2022/12/08 13:51:20;;;;;;;19.35;6.13;;;;;;;;;;5028847;28;20118;-77
2022/12/08 13:53:57;;;;;;;12.75;5.53;;;;;;;;;;5027166;28;20399;-76
2022/12/08 13:56:22;;;;;;;12.57;5.43;;;;;;;;;;5021538;28;20034;-77
2022/12/08 13:58:48;;;;;;;14.60;5.88;;;;;;;;;;5025860;28;20030;-77
2022/12/08 14:01:17;;;;;;;11.32;5.15;;;;;;;;;;5027869;28;20132;-77
2022/12/08 14:03:51;;;;;;;13.20;5.65;;;;;;;;;;5027731;28;20136;-77
2022/12/08 14:06:28;;;;;;;12.05;5.47;;;;;;;;;;5044214;28;20025;-77
2022/12/08 14:08:57;;;;;;;14.52;5.25;;;;;;;;;;5024318;28;20486;-77
2022/12/08 14:11:34;;;;;;;17.30;6.40;;;;;;;;;;5026709;28;20149;-76
2022/12/08 14:14:07;;;;;;;11.07;5.07;;;;;;;;;;5026931;28;20033;-76
2022/12/08 14:16:39;;;;;;;14.57;5.18;;;;;;;;;;5028208;28;20068;-77
2022/12/08 14:19:14;;;;;;;12.25;5.07;;;;;;;;;;5025516;28;20022;-77
2022/12/08 14:21:39;;;;;;;13.82;6.00;;;;;;;;;;5027986;28;20037;-77
2022/12/08 14:24:05;;;;;;;17.75;6.13;;;;;;;;;;5028886;28;20037;-77
2022/12/08 14:26:33;;;;;;;12.25;4.82;;;;;;;;;;5021896;28;20125;-77
2022/12/08 14:28:59;;;;;;;11.07;5.32;;;;;;;;;;5025865;28;20113;-77
2022/12/08 14:31:26;;;;;;;10.00;5.25;;;;;;;;;;5026589;28;20459;-78
2022/12/08 14:33:53;;;;;;;15.20;5.57;;;;;;;;;;5027390;28;20513;-77
2022/12/08 14:36:19;;;;;;;13.18;5.00;;;;;;;;;;5025751;28;20540;-77
2022/12/08 14:38:46;;;;;;;12.30;5.45;;;;;;;;;;5027283;28;20542;-77
2022/12/08 14:41:12;;;;;;;8.05;4.35;;;;;;;;;;5025768;28;20037;-77
2022/12/08 14:43:39;;;;;;;11.30;5.25;;;;;;;;;;5025227;28;20052;-78
2022/12/08 14:46:19;;;;;;;12.13;4.30;;;;;;;;;;5027316;28;20570;-78
2022/12/08 14:48:44;;;;;;;9.27;4.25;;;;;;;;;;5024365;28;20107;-77
2022/12/08 14:51:19;;;;;;;16.45;5.47;;;;;;;;;;5009816;28;20038;-77